Time;durP1;ratioP1;P1;durP2;ratioP2;P2;SDS_P1;SDS_P2;PMS_P1;PMS_P2;Temp;Humidity;BMP_temperature;BMP_pressure;BME280_temperature;BME280_humidity;BME280_pressure;Samples;Min_cycle;Max_cycle;Signal;HPM_P1;HPM_P2
2022/04/08 00:01:36;;;;;;;3.00;1.43;;;9.90;99.90;;;;;;5013021;28;20453;-65
2022/04/08 00:04:03;;;;;;;4.87;1.83;;;10.00;99.90;;;;;;5012647;28;20450;-63
2022/04/08 00:06:30;;;;;;;5.50;1.40;;;10.00;99.90;;;;;;5013147;28;20441;-64
2022/04/08 00:08:57;;;;;;;7.90;1.73;;;10.00;99.90;;;;;;5013519;28;20477;-65
2022/04/08 00:11:25;;;;;;;7.00;1.50;;;10.00;99.90;;;;;;5013047;28;20445;-65
2022/04/08 00:13:52;;;;;;;4.20;1.43;;;10.00;99.90;;;;;;5013278;28;20882;-64
2022/04/08 00:16:21;;;;;;;6.50;1.60;;;10.00;99.90;;;;;;5012188;28;20504;-64
2022/04/08 00:18:48;;;;;;;3.40;1.00;;;10.00;99.90;;;;;;5013190;28;21106;-63
2022/04/08 00:21:15;;;;;;;4.80;1.57;;;10.00;99.90;;;;;;5012604;28;20460;-64
2022/04/08 00:23:42;;;;;;;5.23;2.30;;;10.00;99.90;;;;;;5012958;28;20506;-63
2022/04/08 00:26:10;;;;;;;7.20;1.60;;;10.00;99.90;;;;;;5011313;28;20446;-63
2022/04/08 00:28:36;;;;;;;8.17;1.77;;;10.00;99.90;;;;;;5012664;28;20464;-64
2022/04/08 00:31:04;;;;;;;8.70;1.93;;;10.00;99.90;;;;;;5012844;28;20529;-63
2022/04/08 00:33:33;;;;;;;9.50;2.27;;;10.00;99.90;;;;;;5012465;28;20569;-64
2022/04/08 00:36:00;;;;;;;3.60;1.20;;;9.90;99.90;;;;;;5011984;28;20632;-64
2022/04/08 00:38:26;;;;;;;9.63;1.73;;;9.90;99.90;;;;;;5012676;28;20905;-63
2022/04/08 00:40:53;;;;;;;4.40;1.40;;;9.90;99.90;;;;;;5012438;28;20881;-64
2022/04/08 00:43:21;;;;;;;4.63;1.40;;;9.90;99.90;;;;;;5012513;28;20470;-64
2022/04/08 00:45:48;;;;;;;3.30;1.43;;;9.90;99.90;;;;;;5011869;28;20446;-63
2022/04/08 00:48:14;;;;;;;3.40;1.40;;;9.90;99.90;;;;;;5012521;28;20460;-63
2022/04/08 00:50:45;;;;;;;7.60;1.90;;;9.90;99.90;;;;;;5011985;28;21078;-65
2022/04/08 00:53:12;;;;;;;7.00;2.27;;;9.90;99.90;;;;;;5012789;28;20462;-68
2022/04/08 00:55:39;;;;;;;5.10;1.50;;;9.90;99.90;;;;;;5011735;28;20531;-64
2022/04/08 00:58:07;;;;;;;4.77;1.53;;;9.90;99.90;;;;;;5012525;28;20442;-64
2022/04/08 01:00:35;;;;;;;9.33;2.60;;;9.80;99.90;;;;;;5012293;28;20446;-64
2022/04/08 01:03:02;;;;;;;4.73;2.00;;;9.80;99.90;;;;;;5012481;28;20473;-65
2022/04/08 01:05:29;;;;;;;3.97;1.80;;;9.80;99.90;;;;;;5011794;28;20437;-64
2022/04/08 01:07:57;;;;;;;3.80;1.70;;;9.80;99.90;;;;;;5012692;28;20454;-64
2022/04/08 01:10:24;;;;;;;8.70;1.90;;;9.80;99.90;;;;;;5011750;28;20444;-64
2022/04/08 01:12:51;;;;;;;4.10;1.77;;;9.80;99.90;;;;;;5012066;28;20544;-64
2022/04/08 01:15:19;;;;;;;5.47;2.07;;;9.70;99.90;;;;;;5011146;28;20484;-64
2022/04/08 01:17:46;;;;;;;3.90;1.17;;;9.80;99.90;;;;;;5012151;28;20549;-64
2022/04/08 01:20:13;;;;;;;4.20;1.33;;;9.80;99.90;;;;;;5012143;28;20473;-64
2022/04/08 01:22:40;;;;;;;5.40;1.70;;;9.80;99.90;;;;;;5011829;28;20461;-65
2022/04/08 01:25:11;;;;;;;4.90;1.73;;;9.80;99.90;;;;;;5011721;28;20434;-64
2022/04/08 01:27:38;;;;;;;4.47;1.20;;;9.80;99.90;;;;;;5012090;28;20449;-65
2022/04/08 01:30:07;;;;;;;6.03;1.63;;;9.80;99.90;;;;;;5011515;28;20447;-63
2022/04/08 01:32:34;;;;;;;6.13;1.57;;;9.70;99.90;;;;;;5011795;28;20464;-64
2022/04/08 01:35:01;;;;;;;3.43;1.40;;;9.70;99.90;;;;;;5011216;28;21022;-64
2022/04/08 01:37:28;;;;;;;5.30;1.90;;;9.70;99.90;;;;;;5011666;28;20811;-64
2022/04/08 01:39:55;;;;;;;4.00;1.47;;;9.60;99.90;;;;;;5011879;28;20449;-64
2022/04/08 01:42:24;;;;;;;6.10;1.50;;;9.60;99.90;;;;;;5011370;28;20473;-64
2022/04/08 01:44:52;;;;;;;4.90;1.80;;;9.60;99.90;;;;;;5011163;28;20442;-64
2022/04/08 01:47:19;;;;;;;5.20;1.60;;;9.60;99.90;;;;;;5011488;28;20438;-64
2022/04/08 01:49:46;;;;;;;5.60;1.83;;;9.60;99.90;;;;;;5011599;28;20829;-64
2022/04/08 01:52:13;;;;;;;4.87;1.50;;;9.60;99.90;;;;;;5011280;28;20466;-65
2022/04/08 01:54:40;;;;;;;4.47;1.80;;;9.50;99.90;;;;;;5010589;28;20474;-64
2022/04/08 01:57:06;;;;;;;7.10;1.80;;;9.40;99.90;;;;;;5011273;28;20453;-65
2022/04/08 01:59:35;;;;;;;7.80;2.03;;;9.40;99.90;;;;;;5011389;28;20438;-64
2022/04/08 02:02:02;;;;;;;4.30;2.00;;;9.30;99.90;;;;;;5010887;28;20473;-64
2022/04/08 02:04:29;;;;;;;6.93;1.90;;;9.20;99.90;;;;;;5010653;28;20449;-65
2022/04/08 02:06:56;;;;;;;7.27;1.93;;;9.30;99.90;;;;;;5010785;28;20446;-64
2022/04/08 02:09:23;;;;;;;5.63;1.73;;;9.40;99.90;;;;;;5011058;28;20445;-64
2022/04/08 02:11:50;;;;;;;6.07;1.47;;;9.40;99.90;;;;;;5010722;28;20827;-64
2022/04/08 02:14:17;;;;;;;3.60;1.33;;;9.30;99.90;;;;;;5010394;28;20535;-64
2022/04/08 02:16:45;;;;;;;5.27;2.60;;;9.30;99.90;;;;;;5011374;28;20442;-64
2022/04/08 02:19:12;;;;;;;6.77;1.77;;;9.30;99.90;;;;;;5010811;28;21213;-64
2022/04/08 02:21:39;;;;;;;6.13;1.87;;;9.20;99.90;;;;;;5010288;28;20799;-65
2022/04/08 02:24:08;;;;;;;5.07;1.30;;;9.20;99.90;;;;;;5010112;28;20537;-65
2022/04/08 02:26:35;;;;;;;4.63;1.47;;;9.20;99.90;;;;;;5010857;28;20477;-64
2022/04/08 02:29:01;;;;;;;5.70;2.00;;;9.20;99.90;;;;;;5010698;28;20444;-65
2022/04/08 02:31:28;;;;;;;3.83;1.60;;;9.10;99.90;;;;;;5010383;28;20457;-64
2022/04/08 02:33:56;;;;;;;6.10;1.57;;;9.10;99.90;;;;;;5010588;28;20438;-64
2022/04/08 02:36:23;;;;;;;4.00;1.53;;;9.10;99.90;;;;;;5009971;28;20481;-64
2022/04/08 02:38:50;;;;;;;4.10;1.40;;;9.20;99.90;;;;;;5012078;28;20542;-65
2022/04/08 02:41:17;;;;;;;7.87;1.50;;;9.20;99.90;;;;;;5010166;28;20445;-64
2022/04/08 02:43:44;;;;;;;4.93;1.60;;;9.30;99.90;;;;;;5010401;28;20509;-64
2022/04/08 02:46:10;;;;;;;10.67;1.80;;;9.30;99.90;;;;;;5009842;28;20957;-63
2022/04/08 02:48:37;;;;;;;4.40;1.10;;;9.30;99.90;;;;;;5010503;28;20954;-65
2022/04/08 02:51:05;;;;;;;7.37;1.70;;;9.20;99.90;;;;;;5009660;28;20521;-65
2022/04/08 02:53:32;;;;;;;5.00;1.50;;;9.20;99.90;;;;;;5010585;28;21013;-64
2022/04/08 02:55:59;;;;;;;3.30;1.20;;;9.10;99.90;;;;;;5009864;28;20486;-65
2022/04/08 02:58:28;;;;;;;5.40;1.80;;;9.10;99.90;;;;;;5010249;28;20453;-64
2022/04/08 03:00:57;;;;;;;4.33;1.10;;;9.10;99.90;;;;;;5009951;28;20469;-64
2022/04/08 03:03:26;;;;;;;3.30;1.53;;;9.10;99.90;;;;;;5010096;28;20992;-64
2022/04/08 03:05:52;;;;;;;5.57;1.93;;;9.10;99.90;;;;;;5009365;28;20441;-64
2022/04/08 03:08:21;;;;;;;5.30;1.50;;;9.00;99.90;;;;;;5010524;28;20449;-64
2022/04/08 03:10:47;;;;;;;3.33;1.60;;;9.00;99.90;;;;;;5010513;28;20448;-64
2022/04/08 03:13:14;;;;;;;3.67;1.47;;;9.00;99.90;;;;;;5010612;28;20468;-64
2022/04/08 03:15:41;;;;;;;4.13;1.40;;;9.00;99.90;;;;;;5009978;28;20481;-64
2022/04/08 03:18:08;;;;;;;3.90;1.87;;;9.00;99.90;;;;;;5010496;28;20528;-64
2022/04/08 03:20:35;;;;;;;10.43;2.00;;;9.00;99.90;;;;;;5009731;28;20929;-64
2022/04/08 03:23:01;;;;;;;2.40;1.23;;;8.90;99.90;;;;;;5010415;28;20462;-64
2022/04/08 03:25:29;;;;;;;5.43;1.43;;;8.80;99.90;;;;;;5009406;28;20441;-65
2022/04/08 03:27:56;;;;;;;7.20;2.17;;;8.70;99.90;;;;;;5010207;28;20468;-64
2022/04/08 03:30:24;;;;;;;6.20;1.60;;;8.70;99.90;;;;;;5009754;28;20445;-64
2022/04/08 03:32:51;;;;;;;4.10;1.40;;;8.70;99.90;;;;;;5010276;28;20466;-64
2022/04/08 03:35:18;;;;;;;6.07;1.57;;;8.80;99.90;;;;;;5009207;28;20517;-64
2022/04/08 03:37:44;;;;;;;5.10;1.33;;;8.80;99.90;;;;;;5010299;28;20499;-64
2022/04/08 03:40:12;;;;;;;7.63;2.60;;;8.80;99.90;;;;;;5010167;28;20450;-64
2022/04/08 03:42:40;;;;;;;7.70;1.90;;;8.80;99.90;;;;;;5009838;28;20497;-64
2022/04/08 03:45:08;;;;;;;3.50;1.73;;;8.80;99.90;;;;;;5009181;28;20916;-64
2022/04/08 03:47:35;;;;;;;5.10;2.00;;;8.80;99.90;;;;;;5009815;28;20803;-64
2022/04/08 03:50:02;;;;;;;4.73;1.50;;;8.90;99.90;;;;;;5009876;28;20448;-64
2022/04/08 03:52:32;;;;;;;3.60;1.40;;;8.90;99.90;;;;;;5009403;28;20555;-64
2022/04/08 03:54:59;;;;;;;8.27;2.30;;;9.00;99.90;;;;;;5009007;28;20849;-64
2022/04/08 03:57:26;;;;;;;5.30;1.50;;;8.90;99.90;;;;;;5009875;28;20449;-64
2022/04/08 03:59:55;;;;;;;5.80;1.80;;;8.90;99.90;;;;;;5009482;28;20441;-64
2022/04/08 04:02:22;;;;;;;6.17;1.63;;;8.90;99.90;;;;;;5012893;28;20458;-64
2022/04/08 04:04:49;;;;;;;4.73;1.70;;;8.90;99.90;;;;;;5013147;28;20442;-64
2022/04/08 04:07:17;;;;;;;5.20;1.40;;;8.80;99.90;;;;;;5013936;28;20454;-63
2022/04/08 04:09:44;;;;;;;4.77;1.77;;;8.80;99.90;;;;;;5013419;28;20438;-64
2022/04/08 04:12:11;;;;;;;4.80;1.77;;;8.80;99.90;;;;;;5013006;28;20565;-65
2022/04/08 04:14:39;;;;;;;6.03;1.97;;;8.80;99.90;;;;;;5013061;28;20453;-64
2022/04/08 04:17:07;;;;;;;7.97;2.43;;;8.80;99.90;;;;;;5013667;28;21067;-65
2022/04/08 04:19:34;;;;;;;5.63;1.53;;;8.80;99.90;;;;;;5013318;28;20442;-64
2022/04/08 04:22:01;;;;;;;9.40;1.67;;;8.80;99.90;;;;;;5012644;28;20462;-65
2022/04/08 04:24:27;;;;;;;5.23;1.80;;;8.80;99.90;;;;;;5012434;28;20807;-65
2022/04/08 04:26:54;;;;;;;3.83;1.50;;;8.80;99.90;;;;;;5012939;28;20521;-65
2022/04/08 04:29:21;;;;;;;8.97;2.00;;;8.80;99.90;;;;;;5012521;28;20468;-63
2022/04/08 04:31:48;;;;;;;5.30;1.57;;;8.70;99.90;;;;;;5012480;28;20815;-64
2022/04/08 04:34:16;;;;;;;5.43;1.80;;;8.70;99.90;;;;;;5012043;28;20449;-64
2022/04/08 04:36:43;;;;;;;10.80;1.83;;;8.60;99.90;;;;;;5012462;28;20489;-65
2022/04/08 04:39:10;;;;;;;6.37;1.60;;;8.60;99.90;;;;;;5012401;28;20473;-66
2022/04/08 04:41:36;;;;;;;5.40;1.80;;;8.60;99.90;;;;;;5012191;28;20944;-65
2022/04/08 04:44:04;;;;;;;8.37;2.00;;;8.60;99.90;;;;;;5011536;28;20529;-63
2022/04/08 04:46:30;;;;;;;7.20;1.80;;;8.60;99.90;;;;;;5012344;28;21275;-64
2022/04/08 04:48:57;;;;;;;8.93;2.03;;;8.60;99.90;;;;;;5012256;28;20452;-65
2022/04/08 04:51:26;;;;;;;7.43;1.70;;;8.60;99.90;;;;;;5011829;28;20481;-65
2022/04/08 04:53:53;;;;;;;4.57;1.60;;;8.60;99.90;;;;;;5012381;28;20450;-65
2022/04/08 04:56:20;;;;;;;8.63;2.30;;;8.50;99.90;;;;;;5011739;28;20474;-66
2022/04/08 04:58:46;;;;;;;8.30;2.07;;;8.50;99.90;;;;;;5012340;28;21037;-65
2022/04/08 05:01:13;;;;;;;7.30;1.60;;;8.50;99.90;;;;;;5009113;28;20477;-65
2022/04/08 05:03:41;;;;;;;6.70;2.00;;;8.60;99.90;;;;;;5012121;28;20812;-66
2022/04/08 05:06:07;;;;;;;7.63;1.70;;;8.60;99.90;;;;;;5010698;28;20465;-65
2022/04/08 05:08:36;;;;;;;5.43;2.10;;;8.50;99.90;;;;;;5011891;28;20438;-65
2022/04/08 05:11:03;;;;;;;4.10;1.97;;;8.60;99.90;;;;;;5010327;28;20452;-64
2022/04/08 05:13:30;;;;;;;4.20;1.57;;;8.60;99.90;;;;;;5008618;28;20468;-65
2022/04/08 05:15:56;;;;;;;4.57;2.00;;;8.50;99.90;;;;;;5011284;28;20503;-65
2022/04/08 05:18:23;;;;;;;4.63;1.47;;;8.60;99.90;;;;;;5010528;28;20437;-65
2022/04/08 05:20:52;;;;;;;6.77;2.43;;;8.50;99.90;;;;;;5007249;28;20446;-65
2022/04/08 05:23:19;;;;;;;3.70;1.50;;;8.60;99.90;;;;;;5003419;28;20463;-65
2022/04/08 05:25:47;;;;;;;5.20;1.27;;;8.60;99.90;;;;;;5007289;28;20442;-65
2022/04/08 05:28:15;;;;;;;4.77;1.77;;;8.50;99.90;;;;;;5009713;28;20441;-65
2022/04/08 05:30:43;;;;;;;6.20;1.80;;;8.40;99.90;;;;;;5009425;28;20480;-65
2022/04/08 05:33:09;;;;;;;4.80;1.73;;;8.60;99.90;;;;;;5010668;28;20478;-65
2022/04/08 05:35:36;;;;;;;6.03;1.90;;;8.60;99.90;;;;;;5010447;28;20859;-65
2022/04/08 05:38:03;;;;;;;6.07;1.90;;;8.70;99.90;;;;;;5010397;28;20450;-65
2022/04/08 05:40:30;;;;;;;7.27;1.90;;;8.70;99.90;;;;;;5011138;28;20973;-64
2022/04/08 05:42:58;;;;;;;6.97;2.00;;;8.70;99.90;;;;;;5011416;28;20549;-65
2022/04/08 05:45:25;;;;;;;10.47;3.30;;;8.70;99.90;;;;;;5010297;28;20966;-65
2022/04/08 05:47:54;;;;;;;8.93;2.60;;;8.70;99.90;;;;;;5011279;28;20445;-65
2022/04/08 05:50:21;;;;;;;6.17;1.93;;;8.70;99.90;;;;;;5011239;28;20457;-65
2022/04/08 05:52:48;;;;;;;5.23;2.20;;;8.80;99.90;;;;;;5010740;28;20469;-65
2022/04/08 05:55:15;;;;;;;8.53;2.57;;;8.80;99.90;;;;;;5010267;28;20525;-65
2022/04/08 05:57:42;;;;;;;5.50;2.43;;;8.80;99.90;;;;;;5010884;28;20449;-65
2022/04/08 06:00:13;;;;;;;6.20;2.30;;;8.90;99.90;;;;;;5010930;28;20452;-64
2022/04/08 06:02:43;;;;;;;5.00;1.83;;;8.90;99.90;;;;;;5010539;28;20496;-65
2022/04/08 06:05:10;;;;;;;8.87;2.90;;;8.90;99.90;;;;;;5009975;28;20512;-63
2022/04/08 06:07:44;;;;;;;6.90;1.67;;;8.90;99.90;;;;;;5011175;28;20524;-65
2022/04/08 06:10:10;;;;;;;8.90;2.90;;;8.90;99.90;;;;;;5010923;28;20453;-65
2022/04/08 06:12:37;;;;;;;7.70;1.93;;;8.80;99.90;;;;;;5010510;28;20470;-65
2022/04/08 06:15:05;;;;;;;5.80;1.90;;;8.80;99.90;;;;;;5009927;28;20460;-65
2022/04/08 06:17:37;;;;;;;8.50;2.73;;;8.80;99.90;;;;;;5010568;28;21011;-65
2022/04/08 06:20:05;;;;;;;8.57;1.90;;;8.80;99.90;;;;;;5010542;28;20959;-65
2022/04/08 06:22:32;;;;;;;5.50;2.23;;;8.80;99.90;;;;;;5010467;28;20484;-65
2022/04/08 06:24:59;;;;;;;4.63;1.83;;;8.80;99.90;;;;;;5009156;28;20460;-65
2022/04/08 06:27:26;;;;;;;3.73;1.70;;;8.80;99.90;;;;;;5010497;28;20948;-64
2022/04/08 06:29:53;;;;;;;3.50;1.53;;;8.70;99.90;;;;;;5010460;28;20450;-65
2022/04/08 06:32:20;;;;;;;3.27;1.60;;;8.70;99.90;;;;;;5009943;28;20469;-65
2022/04/08 06:34:48;;;;;;;4.53;1.50;;;8.70;99.90;;;;;;5010087;28;20461;-65
2022/04/08 06:37:15;;;;;;;13.20;2.03;;;8.60;99.90;;;;;;5010863;28;20481;-65
2022/04/08 06:39:42;;;;;;;4.17;1.30;;;8.50;99.90;;;;;;5010655;28;20540;-63
2022/04/08 06:42:08;;;;;;;4.67;1.37;;;8.50;99.90;;;;;;5010036;28;20548;-65
2022/04/08 06:44:36;;;;;;;6.73;1.80;;;8.60;99.90;;;;;;5009589;28;20454;-64
2022/04/08 06:47:03;;;;;;;3.53;1.03;;;8.50;99.90;;;;;;5010210;28;20446;-64
2022/04/08 06:49:29;;;;;;;5.30;1.63;;;8.50;99.90;;;;;;5010382;28;20956;-64
2022/04/08 06:51:58;;;;;;;3.90;1.40;;;8.60;99.90;;;;;;5009897;28;20857;-65
2022/04/08 06:54:25;;;;;;;4.13;1.40;;;8.60;99.90;;;;;;5009467;28;20442;-65
2022/04/08 06:56:52;;;;;;;4.10;1.30;;;8.60;99.90;;;;;;5010054;28;20485;-65
2022/04/08 06:59:19;;;;;;;3.60;1.40;;;8.60;99.90;;;;;;5010115;28;20456;-65
2022/04/08 07:01:46;;;;;;;7.00;1.80;;;8.70;99.90;;;;;;5009576;28;20466;-65
2022/04/08 07:04:13;;;;;;;7.00;1.43;;;8.70;99.90;;;;;;5009381;28;20541;-64
2022/04/08 07:06:40;;;;;;;3.77;1.40;;;8.60;99.90;;;;;;5009821;28;20461;-63
2022/04/08 07:09:08;;;;;;;5.87;1.70;;;8.60;99.90;;;;;;5010084;28;20477;-64
2022/04/08 07:11:35;;;;;;;6.43;1.90;;;8.50;99.90;;;;;;5009498;28;20442;-62
2022/04/08 07:14:04;;;;;;;4.47;1.60;;;8.50;99.90;;;;;;5010110;28;20581;-64
2022/04/08 07:16:31;;;;;;;5.13;1.87;;;8.40;99.90;;;;;;5010096;28;20580;-64
2022/04/08 07:18:58;;;;;;;6.63;2.27;;;8.40;99.90;;;;;;5010387;28;20445;-64
2022/04/08 07:21:26;;;;;;;3.87;1.90;;;8.30;99.90;;;;;;5009857;28;20452;-64
2022/04/08 07:23:52;;;;;;;6.17;1.47;;;8.20;99.90;;;;;;5010181;28;20450;-64
2022/04/08 07:26:21;;;;;;;4.97;1.63;;;8.10;99.90;;;;;;5009324;28;20442;-64
2022/04/08 07:28:48;;;;;;;4.10;1.50;;;8.00;99.90;;;;;;5010044;28;20450;-64
2022/04/08 07:31:14;;;;;;;4.83;1.47;;;7.80;99.90;;;;;;5009482;28;20480;-64
2022/04/08 07:33:41;;;;;;;7.10;2.53;;;7.80;99.90;;;;;;5009816;28;20474;-64
2022/04/08 07:36:08;;;;;;;4.90;1.60;;;7.70;99.90;;;;;;5010616;28;20569;-63
2022/04/08 07:38:35;;;;;;;5.23;1.73;;;7.70;99.90;;;;;;5013550;28;20464;-64
2022/04/08 07:41:02;;;;;;;2.40;1.07;;;7.70;99.90;;;;;;5013249;28;20537;-65
2022/04/08 07:43:30;;;;;;;6.67;2.27;;;7.70;99.90;;;;;;5011422;28;20466;-64
2022/04/08 07:45:57;;;;;;;7.07;1.73;;;7.70;99.90;;;;;;5010338;28;20540;-64
2022/04/08 07:48:24;;;;;;;4.73;1.33;;;7.80;99.90;;;;;;5009443;28;20449;-63
2022/04/08 07:50:50;;;;;;;6.60;1.83;;;7.70;99.90;;;;;;5004078;28;20450;-63
2022/04/08 07:53:17;;;;;;;5.47;1.77;;;7.60;99.90;;;;;;5006061;28;20492;-64
2022/04/08 07:55:44;;;;;;;3.60;1.30;;;7.60;99.90;;;;;;5012286;28;20441;-64
2022/04/08 07:58:11;;;;;;;4.37;2.50;;;7.60;99.90;;;;;;5013234;28;20463;-64
2022/04/08 08:00:39;;;;;;;4.20;1.50;;;7.50;99.90;;;;;;5013376;28;20477;-65
2022/04/08 08:03:06;;;;;;;4.57;1.23;;;7.50;99.90;;;;;;5004538;28;20474;-66
2022/04/08 08:05:33;;;;;;;5.03;1.20;;;7.60;99.90;;;;;;5002418;28;20461;-65
2022/04/08 08:08:02;;;;;;;3.07;1.40;;;7.60;99.90;;;;;;5004327;28;21027;-65
2022/04/08 08:10:30;;;;;;;5.10;1.60;;;7.70;99.90;;;;;;5004290;28;21116;-66
2022/04/08 08:12:58;;;;;;;2.50;1.30;;;8.00;99.90;;;;;;5009920;28;20983;-65
2022/04/08 08:15:26;;;;;;;3.50;1.43;;;8.20;99.90;;;;;;5008476;28;20461;-65
2022/04/08 08:17:55;;;;;;;4.70;1.43;;;8.30;99.90;;;;;;5002443;28;20482;-65
2022/04/08 08:20:23;;;;;;;3.90;1.30;;;8.40;99.90;;;;;;5009988;28;20468;-66
2022/04/08 08:22:50;;;;;;;4.23;1.40;;;8.60;99.90;;;;;;5012172;28;20480;-65
2022/04/08 08:25:18;;;;;;;2.20;1.00;;;8.60;99.90;;;;;;5012366;28;20837;-66
2022/04/08 08:27:47;;;;;;;6.80;1.60;;;8.60;99.90;;;;;;5003187;28;20458;-65
2022/04/08 08:30:16;;;;;;;1.83;0.80;;;8.50;99.90;;;;;;5012474;28;20912;-65
2022/04/08 08:32:45;;;;;;;3.93;1.30;;;8.50;99.90;;;;;;5011513;28;20557;-65
2022/04/08 08:35:17;;;;;;;3.37;1.47;;;8.60;99.90;;;;;;4997934;28;20445;-65
2022/04/08 08:37:44;;;;;;;5.37;1.50;;;8.70;99.90;;;;;;5011587;28;20486;-66
2022/04/08 08:40:12;;;;;;;2.63;1.30;;;8.70;99.90;;;;;;5003550;28;20469;-65
2022/04/08 08:42:40;;;;;;;3.90;1.47;;;8.70;99.90;;;;;;5007911;28;20485;-66
2022/04/08 08:45:09;;;;;;;4.90;1.67;;;8.70;99.90;;;;;;5011508;28;20533;-65
2022/04/08 08:47:36;;;;;;;2.53;1.53;;;8.90;99.90;;;;;;5011193;28;20516;-65
2022/04/08 08:50:05;;;;;;;5.30;2.03;;;9.10;99.90;;;;;;5012811;28;20438;-65
2022/04/08 08:52:33;;;;;;;5.17;1.87;;;9.30;99.90;;;;;;5012191;28;20536;-66
2022/04/08 08:55:03;;;;;;;4.03;1.60;;;9.30;99.90;;;;;;5011571;28;20468;-66
2022/04/08 08:57:29;;;;;;;3.10;1.60;;;9.30;99.90;;;;;;5012297;28;20492;-65
2022/04/08 09:00:07;;;;;;;2.67;1.17;;;9.40;99.90;;;;;;5008251;28;20531;-65
2022/04/08 09:02:35;;;;;;;3.03;1.23;;;9.30;99.90;;;;;;5011880;28;20465;-63
2022/04/08 09:05:11;;;;;;;3.10;1.10;;;9.20;99.90;;;;;;5011648;28;20461;-65
2022/04/08 09:07:39;;;;;;;2.40;1.30;;;9.20;99.90;;;;;;5012335;28;20452;-65
2022/04/08 09:10:07;;;;;;;2.90;1.33;;;9.30;99.90;;;;;;5000684;28;20465;-63
2022/04/08 09:12:34;;;;;;;2.73;1.30;;;9.40;99.90;;;;;;5011022;28;20470;-64
2022/04/08 09:15:02;;;;;;;3.63;1.50;;;9.50;99.90;;;;;;5010269;28;20446;-63
2022/04/08 09:17:30;;;;;;;4.17;1.90;;;9.60;99.90;;;;;;5012137;28;20984;-66
2022/04/08 09:19:58;;;;;;;2.33;1.13;;;9.60;99.90;;;;;;5011794;28;20449;-65
2022/04/08 09:22:27;;;;;;;6.03;1.43;;;9.60;99.90;;;;;;5010113;28;20617;-65
2022/04/08 09:24:56;;;;;;;2.73;1.60;;;9.50;99.90;;;;;;5009994;28;20457;-65
2022/04/08 09:27:34;;;;;;;3.07;1.30;;;9.50;99.90;;;;;;5011511;28;21201;-64
2022/04/08 09:30:01;;;;;;;4.63;1.40;;;9.40;99.90;;;;;;5011916;28;20445;-64
2022/04/08 09:32:28;;;;;;;3.80;1.50;;;9.40;99.90;;;;;;5011503;28;20549;-65
2022/04/08 09:34:55;;;;;;;4.90;1.73;;;9.40;99.90;;;;;;5011487;28;20496;-64
2022/04/08 09:37:22;;;;;;;3.40;1.43;;;9.30;99.90;;;;;;5011939;28;20480;-65
2022/04/08 09:39:58;;;;;;;2.60;1.10;;;9.30;99.90;;;;;;5011757;28;20457;-64
2022/04/08 09:42:31;;;;;;;3.90;1.30;;;9.30;99.90;;;;;;4999521;28;20459;-65
2022/04/08 09:44:58;;;;;;;2.43;1.10;;;9.30;99.90;;;;;;5010875;28;20962;-65
2022/04/08 09:47:24;;;;;;;2.30;1.00;;;9.40;99.90;;;;;;5011647;28;20820;-65
2022/04/08 09:49:51;;;;;;;3.23;1.20;;;9.30;99.90;;;;;;5011386;28;20471;-65
2022/04/08 09:52:20;;;;;;;2.93;1.13;;;9.30;99.90;;;;;;5007880;28;20496;-64
2022/04/08 09:54:47;;;;;;;2.43;1.23;;;9.20;99.90;;;;;;5008997;28;20445;-65
2022/04/08 09:57:18;;;;;;;3.00;1.40;;;9.10;99.90;;;;;;5007809;28;20647;-64
2022/04/08 09:59:47;;;;;;;3.40;1.20;;;9.00;99.90;;;;;;5008857;28;20457;-65
2022/04/08 10:02:16;;;;;;;3.10;1.30;;;9.00;99.90;;;;;;5001293;28;20492;-65
2022/04/08 10:04:44;;;;;;;4.07;1.80;;;8.90;99.90;;;;;;5009920;28;20454;-65
2022/04/08 10:07:11;;;;;;;2.73;1.50;;;8.80;99.90;;;;;;5005662;28;20457;-65
2022/04/08 10:09:46;;;;;;;2.50;1.20;;;8.70;99.90;;;;;;5005013;28;20457;-64
2022/04/08 10:12:25;;;;;;;3.87;1.47;;;8.70;99.90;;;;;;5006859;28;20481;-65
2022/04/08 10:14:59;;;;;;;3.40;1.47;;;8.90;99.90;;;;;;5001689;28;20483;-66
2022/04/08 10:17:26;;;;;;;2.50;1.20;;;9.00;99.90;;;;;;5000778;28;20474;-65
2022/04/08 10:19:53;;;;;;;3.07;1.30;;;9.00;99.90;;;;;;4999889;28;20447;-65
2022/04/08 10:22:21;;;;;;;3.10;1.40;;;9.10;99.90;;;;;;4998579;28;20472;-65
2022/04/08 10:24:56;;;;;;;4.07;1.30;;;9.10;99.90;;;;;;4999901;28;20447;-65
2022/04/08 10:27:32;;;;;;;3.03;1.53;;;9.20;99.90;;;;;;5001677;28;21014;-65
2022/04/08 10:29:59;;;;;;;3.20;1.50;;;9.20;99.90;;;;;;5010253;28;20441;-65
2022/04/08 10:32:37;;;;;;;2.97;1.40;;;9.30;99.90;;;;;;5009590;28;20468;-65
2022/04/08 10:35:15;;;;;;;2.90;1.20;;;9.30;99.90;;;;;;5008867;28;20986;-66
2022/04/08 10:37:42;;;;;;;2.60;1.10;;;9.30;99.90;;;;;;5010609;28;20883;-65
2022/04/08 10:40:11;;;;;;;2.80;0.87;;;9.30;99.90;;;;;;5010344;28;20836;-65
2022/04/08 10:42:39;;;;;;;3.70;1.07;;;9.30;99.90;;;;;;5007040;28;20490;-66
2022/04/08 10:45:13;;;;;;;3.90;0.90;;;9.40;99.90;;;;;;5007500;28;20462;-65
2022/04/08 10:47:48;;;;;;;5.63;1.40;;;9.50;99.90;;;;;;5007765;28;20596;-65
2022/04/08 10:50:25;;;;;;;2.73;1.20;;;9.60;99.90;;;;;;5004574;28;20452;-65
2022/04/08 10:53:07;;;;;;;2.73;1.30;;;9.70;99.90;;;;;;5009453;28;20466;-65
2022/04/08 10:55:48;;;;;;;2.03;1.03;;;9.80;99.90;;;;;;5003830;28;20534;-65
2022/04/08 10:58:30;;;;;;;2.80;1.10;;;9.80;99.90;;;;;;5007222;28;20480;-65
2022/04/08 11:00:57;;;;;;;4.07;1.27;;;9.40;99.90;;;;;;5007575;28;20461;-64
2022/04/08 11:03:26;;;;;;;2.53;1.03;;;9.00;99.90;;;;;;5011181;28;20465;-65
2022/04/08 11:05:53;;;;;;;3.43;1.17;;;8.40;99.90;;;;;;5003588;28;20465;-64
2022/04/08 11:08:22;;;;;;;4.70;1.30;;;8.10;99.90;;;;;;5003835;28;20472;-64
2022/04/08 11:10:56;;;;;;;4.90;1.23;;;7.90;99.90;;;;;;5003281;28;20462;-64
2022/04/08 11:13:24;;;;;;;5.80;2.07;;;7.80;99.90;;;;;;5009273;28;20473;-65
2022/04/08 11:15:51;;;;;;;2.03;1.00;;;7.80;99.90;;;;;;5006074;28;20994;-64
2022/04/08 11:18:18;;;;;;;2.13;0.87;;;7.60;99.90;;;;;;5005232;28;20496;-64
2022/04/08 11:20:49;;;;;;;3.47;1.30;;;7.60;99.90;;;;;;5005388;28;20981;-61
2022/04/08 11:23:16;;;;;;;2.80;1.13;;;7.70;99.90;;;;;;5008325;28;20476;-63
2022/04/08 11:25:43;;;;;;;2.33;0.90;;;8.00;99.90;;;;;;5003516;28;20460;-64
2022/04/08 11:28:10;;;;;;;2.97;1.10;;;8.00;99.90;;;;;;5006338;28;20944;-65
2022/04/08 11:30:40;;;;;;;2.10;1.10;;;7.80;99.90;;;;;;5005556;28;20454;-64
2022/04/08 11:33:14;;;;;;;2.87;0.93;;;7.70;99.90;;;;;;5009043;28;20473;-64
2022/04/08 11:35:41;;;;;;;1.90;1.00;;;7.70;99.90;;;;;;5004378;28;20692;-64
2022/04/08 11:38:13;;;;;;;3.60;1.00;;;7.70;99.90;;;;;;5001178;28;20478;-65
2022/04/08 11:40:40;;;;;;;2.03;0.77;;;7.60;99.90;;;;;;5007469;28;20847;-64
2022/04/08 11:43:07;;;;;;;3.40;1.23;;;7.40;99.90;;;;;;5009580;28;20913;-64
2022/04/08 11:45:34;;;;;;;2.37;0.83;;;7.30;99.90;;;;;;5004772;28;20454;-63
2022/04/08 11:48:02;;;;;;;2.53;0.90;;;7.30;99.90;;;;;;5000955;28;20556;-64
2022/04/08 11:50:32;;;;;;;1.80;0.70;;;7.30;99.90;;;;;;5007526;28;20521;-64
2022/04/08 11:52:59;;;;;;;2.53;0.80;;;7.40;99.90;;;;;;5008743;28;20464;-64
2022/04/08 11:55:27;;;;;;;2.97;1.10;;;7.40;99.90;;;;;;5009229;28;20525;-65
2022/04/08 11:57:55;;;;;;;1.60;0.80;;;7.40;99.90;;;;;;5009346;28;21059;-64
2022/04/08 12:00:27;;;;;;;1.60;0.60;;;7.50;99.90;;;;;;5005305;28;20454;-64
2022/04/08 12:02:56;;;;;;;4.23;0.90;;;7.60;99.90;;;;;;5006744;28;20466;-65
2022/04/08 12:05:27;;;;;;;2.67;0.90;;;7.70;99.90;;;;;;5007623;28;20450;-64
2022/04/08 12:07:56;;;;;;;2.30;0.70;;;8.00;99.90;;;;;;5004081;28;20624;-66
2022/04/08 12:10:24;;;;;;;1.90;0.90;;;8.00;99.90;;;;;;5008669;28;20986;-65
2022/04/08 12:12:52;;;;;;;2.93;1.10;;;7.90;99.90;;;;;;5009153;28;20469;-66
2022/04/08 12:15:21;;;;;;;3.50;1.20;;;7.70;99.90;;;;;;5008605;28;20476;-65
2022/04/08 12:17:49;;;;;;;2.57;1.23;;;7.60;99.90;;;;;;5009420;28;20488;-66
2022/04/08 12:20:17;;;;;;;2.50;1.27;;;7.70;99.90;;;;;;5009324;28;20493;-67
2022/04/08 12:22:48;;;;;;;2.47;1.33;;;7.80;99.90;;;;;;5009724;28;20469;-66
2022/04/08 12:25:17;;;;;;;4.30;1.60;;;8.00;99.90;;;;;;5010305;28;20818;-67
2022/04/08 12:27:44;;;;;;;2.77;1.30;;;7.90;99.90;;;;;;5012363;28;20446;-66
2022/04/08 12:30:11;;;;;;;3.23;1.30;;;7.60;99.90;;;;;;5012641;28;20433;-66
2022/04/08 12:32:39;;;;;;;3.97;2.03;;;7.40;99.90;;;;;;5012279;28;20862;-66
2022/04/08 12:35:08;;;;;;;3.03;1.40;;;7.40;99.90;;;;;;5009673;28;20465;-66
2022/04/08 12:37:35;;;;;;;5.03;2.00;;;7.70;99.90;;;;;;5004464;28;20501;-66
2022/04/08 12:40:04;;;;;;;2.20;1.60;;;7.80;99.90;;;;;;5009754;28;20472;-66
2022/04/08 12:42:34;;;;;;;2.73;1.73;;;7.70;99.90;;;;;;5008569;28;20987;-65
2022/04/08 12:45:01;;;;;;;3.80;1.70;;;7.50;99.90;;;;;;5006561;28;20489;-65
2022/04/08 12:47:28;;;;;;;4.13;1.63;;;7.60;99.90;;;;;;5007446;28;20457;-66
2022/04/08 12:49:55;;;;;;;2.93;1.70;;;7.50;99.90;;;;;;5010316;28;20932;-65
2022/04/08 12:52:21;;;;;;;3.30;2.10;;;7.60;99.90;;;;;;5011287;28;20473;-62
2022/04/08 12:54:49;;;;;;;2.60;1.33;;;7.50;99.90;;;;;;5011482;28;20453;-62
2022/04/08 12:57:18;;;;;;;2.10;1.30;;;7.50;99.90;;;;;;5000236;28;20565;-65
2022/04/08 12:59:46;;;;;;;3.00;2.03;;;7.70;99.90;;;;;;5007782;28;20456;-69